createdAt,value
2023-03-12T00:00:17.538Z,99409.44
2023-03-12T00:02:44.329Z,99406.91
2023-03-12T00:05:11.570Z,99412.78
2023-03-12T00:07:39.543Z,99408.59
2023-03-12T00:10:07.997Z,99401.91
2023-03-12T00:12:34.990Z,99412.28
2023-03-12T00:15:02.032Z,99397.38
2023-03-12T00:17:30.384Z,99404.94
2023-03-12T00:19:57.497Z,99403.56
2023-03-12T00:22:25.928Z,99400.25
2023-03-12T00:24:55.127Z,99397.38
2023-03-12T00:27:22.905Z,99405.44
2023-03-12T00:29:50.285Z,99405.28
2023-03-12T00:32:17.643Z,99396.25
2023-03-12T00:34:44.465Z,99401.44
2023-03-12T00:37:11.306Z,99394.06
2023-03-12T00:39:38.079Z,99393.56
2023-03-12T00:42:05.225Z,99395.25
2023-03-12T00:44:32.137Z,99394.38
2023-03-12T00:46:59.038Z,99395.88
2023-03-12T00:49:25.965Z,99403.94
2023-03-12T00:51:54.246Z,99406.78
2023-03-12T00:54:21.850Z,99405.94
2023-03-12T00:56:49.173Z,99407.44
2023-03-12T00:59:16.689Z,99395.03
2023-03-12T01:01:44.120Z,99391.34
2023-03-12T01:04:12.311Z,99391.84
2023-03-12T01:06:39.183Z,99393.19
2023-03-12T01:09:09.214Z,99399.09
2023-03-12T01:11:37.693Z,99398.09
2023-03-12T01:14:06.939Z,99396.75
2023-03-12T01:16:34.250Z,99390.56
2023-03-12T01:19:02.373Z,99403.31
2023-03-12T01:21:30.622Z,99405.00
2023-03-12T01:23:57.517Z,99395.56
2023-03-12T01:26:24.833Z,99385.34
2023-03-12T01:28:51.638Z,99381.00
2023-03-12T01:31:19.455Z,99383.84
2023-03-12T01:33:51.909Z,99391.38
2023-03-12T01:36:26.736Z,99389.03
2023-03-12T01:39:00.113Z,99389.16
2023-03-12T01:41:32.946Z,99396.56
2023-03-12T01:44:03.870Z,99396.41
2023-03-12T01:46:39.728Z,99390.88
2023-03-12T01:49:10.852Z,99388.53
2023-03-12T01:51:51.968Z,99402.94
2023-03-12T01:54:46.868Z,99384.00
2023-03-12T01:57:29.074Z,99387.19
2023-03-12T02:00:14.274Z,99383.84
2023-03-12T02:02:43.822Z,99384.00
2023-03-12T02:05:38.575Z,99388.19
2023-03-12T02:08:06.087Z,99391.84
2023-03-12T02:10:32.915Z,99391.69
2023-03-12T02:13:00.001Z,99386.31
2023-03-12T02:15:27.939Z,99387.00
2023-03-12T02:17:54.974Z,99374.41
2023-03-12T02:20:47.455Z,99372.75
2023-03-12T02:23:33.738Z,99387.34
2023-03-12T02:26:02.577Z,99392.38
2023-03-12T02:28:30.175Z,99392.88
2023-03-12T02:31:03.744Z,99389.56
2023-03-12T02:33:30.754Z,99397.63
2023-03-12T02:35:57.856Z,99394.25
2023-03-12T02:38:36.765Z,99398.13
2023-03-12T02:41:20.739Z,99394.28
2023-03-12T02:44:13.243Z,99403.00
2023-03-12T02:46:44.515Z,99400.31
2023-03-12T02:49:13.460Z,99400.50
2023-03-12T02:51:42.729Z,99393.59
2023-03-12T02:54:10.671Z,99397.63
2023-03-12T02:56:38.179Z,99403.81
2023-03-12T02:59:06.457Z,99396.09
2023-03-12T03:01:36.470Z,99394.91
2023-03-12T03:04:05.954Z,99397.59
2023-03-12T03:06:32.902Z,99396.94
2023-03-12T03:08:59.909Z,99395.59
2023-03-12T03:11:26.902Z,99395.28
2023-03-12T03:13:55.230Z,99404.69
2023-03-12T03:16:22.928Z,99405.69
2023-03-12T03:18:50.107Z,99408.38
2023-03-12T03:21:18.039Z,99413.91
2023-03-12T03:23:47.306Z,99421.28
2023-03-12T03:26:16.258Z,99415.75
2023-03-12T03:28:45.825Z,99422.47
2023-03-12T03:31:13.026Z,99428.34
2023-03-12T03:33:40.876Z,99435.22
2023-03-12T03:36:09.602Z,99442.97
2023-03-12T03:38:36.869Z,99438.59
2023-03-12T03:41:04.230Z,99437.91
2023-03-12T03:43:31.089Z,99440.94
2023-03-12T03:46:05.065Z,99441.06
2023-03-12T03:48:32.522Z,99438.88
2023-03-12T03:51:05.152Z,99439.22
2023-03-12T03:53:32.576Z,99453.31
2023-03-12T03:55:59.401Z,99448.63
2023-03-12T03:58:26.305Z,99442.41
2023-03-12T04:00:54.724Z,99433.16
2023-03-12T04:03:21.507Z,99432.81
2023-03-12T04:05:58.845Z,99433.81
2023-03-12T04:08:26.146Z,99442.75
2023-03-12T04:10:53.601Z,99445.25
2023-03-12T04:13:20.890Z,99444.91
2023-03-12T04:15:53.791Z,99444.56
2023-03-12T04:18:20.827Z,99443.72
2023-03-12T04:20:47.966Z,99436.50
2023-03-12T04:23:14.846Z,99452.28
2023-03-12T04:25:41.652Z,99455.13
2023-03-12T04:28:08.520Z,99463.69
2023-03-12T04:30:38.374Z,99467.09
2023-03-12T04:33:08.394Z,99473.28
2023-03-12T04:35:35.290Z,99468.56
2023-03-12T04:38:03.469Z,99476.97
2023-03-12T04:40:30.757Z,99489.06
2023-03-12T04:42:57.552Z,99491.22
2023-03-12T04:45:24.377Z,99491.06
2023-03-12T04:47:51.206Z,99492.22
2023-03-12T04:50:18.366Z,99473.38
2023-03-12T04:52:45.335Z,99472.22
2023-03-12T04:55:12.269Z,99479.59
2023-03-12T04:57:39.061Z,99473.16
2023-03-12T05:00:13.638Z,99486.47
2023-03-12T05:02:41.922Z,99497.56
2023-03-12T05:05:11.145Z,99503.44
2023-03-12T05:07:37.901Z,99503.59
2023-03-12T05:10:05.301Z,99502.41
2023-03-12T05:12:32.071Z,99501.41
2023-03-12T05:14:58.876Z,99500.56
2023-03-12T05:17:26.006Z,99509.66
2023-03-12T05:19:52.888Z,99503.44
2023-03-12T05:22:19.743Z,99501.56
2023-03-12T05:24:46.544Z,99490.84
2023-03-12T05:27:13.448Z,99495.19
2023-03-12T05:29:40.242Z,99503.28
2023-03-12T05:32:07.786Z,99494.53
2023-03-12T05:34:35.385Z,99499.09
2023-03-12T05:37:02.202Z,99503.44
2023-03-12T05:39:29.016Z,99501.94
2023-03-12T05:41:57.362Z,99504.47
2023-03-12T05:44:25.324Z,99491.19
2023-03-12T05:46:52.804Z,99495.56
2023-03-12T05:49:21.510Z,99495.72
2023-03-12T05:51:50.172Z,99502.97
2023-03-12T05:54:18.322Z,99501.44
2023-03-12T05:56:45.217Z,99510.56
2023-03-12T05:59:12.145Z,99510.56
2023-03-12T06:01:39.927Z,99501.81
2023-03-12T06:04:06.942Z,99492.88
2023-03-12T06:06:36.180Z,99507.00
2023-03-12T06:09:05.192Z,99515.44
2023-03-12T06:11:34.153Z,99504.50
2023-03-12T06:14:01.348Z,99513.59
2023-03-12T06:16:29.734Z,99523.16
2023-03-12T06:18:59.870Z,99521.50
2023-03-12T06:21:31.178Z,99524.50
2023-03-12T06:24:02.158Z,99526.53
2023-03-12T06:26:29.212Z,99521.53
2023-03-12T06:28:56.505Z,99520.81
2023-03-12T06:31:24.412Z,99529.59
2023-03-12T06:33:52.100Z,99550.44
2023-03-12T06:36:18.894Z,99530.91
2023-03-12T06:38:45.694Z,99527.25
2023-03-12T06:41:16.487Z,99539.53
2023-03-12T06:43:44.482Z,99544.06
2023-03-12T06:46:18.562Z,99546.09
2023-03-12T06:48:46.730Z,99541.06
2023-03-12T06:51:16.603Z,99553.16
2023-03-12T06:53:45.279Z,99550.13
2023-03-12T06:56:13.079Z,99556.00
2023-03-12T06:58:40.352Z,99551.78
2023-03-12T07:01:08.164Z,99550.44
2023-03-12T07:03:35.194Z,99551.13
2023-03-12T07:06:02.301Z,99544.56
2023-03-12T07:08:32.503Z,99550.78
2023-03-12T07:11:03.720Z,99554.50
2023-03-12T07:13:31.016Z,99570.13
2023-03-12T07:15:58.195Z,99578.03
2023-03-12T07:18:25.113Z,99583.56
2023-03-12T07:20:52.674Z,99580.72
2023-03-12T07:23:20.093Z,99583.06
2023-03-12T07:25:48.095Z,99582.41
2023-03-12T07:28:16.635Z,99578.72
2023-03-12T07:30:43.521Z,99570.31
2023-03-12T07:33:12.981Z,99571.63
2023-03-12T07:35:40.545Z,99570.06
2023-03-12T07:38:08.752Z,99569.03
2023-03-12T07:40:36.411Z,99568.94
2023-03-12T07:43:07.049Z,99562.78
2023-03-12T07:45:33.904Z,99566.91
2023-03-12T07:48:00.694Z,99570.81
2023-03-12T07:50:27.603Z,99570.50
2023-03-12T07:52:54.484Z,99571.38
2023-03-12T07:55:21.418Z,99562.25
2023-03-12T07:57:49.189Z,99553.81
2023-03-12T08:00:17.557Z,99538.88
2023-03-12T08:02:45.472Z,99530.94
2023-03-12T08:05:12.603Z,99529.16
2023-03-12T08:07:39.445Z,99548.44
2023-03-12T08:10:10.614Z,99542.91
2023-03-12T08:12:37.796Z,99534.84
2023-03-12T08:15:08.459Z,99517.16
2023-03-12T08:17:35.797Z,99513.47
2023-03-12T08:20:02.948Z,99519.25
2023-03-12T08:22:29.765Z,99514.88
2023-03-12T08:24:56.580Z,99520.78
2023-03-12T08:27:23.471Z,99527.69
2023-03-12T08:29:50.362Z,99525.47
2023-03-12T08:32:17.518Z,99518.94
2023-03-12T08:34:44.339Z,99530.25
2023-03-12T08:37:11.182Z,99532.81
2023-03-12T08:39:38.040Z,99550.34
2023-03-12T08:42:05.771Z,99549.06
2023-03-12T08:44:32.544Z,99547.84
2023-03-12T08:46:59.713Z,99549.91
2023-03-12T08:49:26.721Z,99557.09
2023-03-12T08:51:53.745Z,99562.53
2023-03-12T08:54:21.749Z,99561.94
2023-03-12T08:56:52.586Z,99555.09
2023-03-12T08:59:20.845Z,99554.28
2023-03-12T09:01:48.151Z,99554.03
2023-03-12T09:04:15.387Z,99553.19
2023-03-12T09:06:42.936Z,99546.03
2023-03-12T09:09:09.841Z,99535.41
2023-03-12T09:11:39.852Z,99555.00
2023-03-12T09:14:46.169Z,99553.19
2023-03-12T09:16:54.873Z,99550.31
2023-03-12T09:19:21.725Z,99550.31
2023-03-12T09:21:48.977Z,99562.75
2023-03-12T09:24:15.810Z,99552.75
2023-03-12T09:26:42.637Z,99536.56
2023-03-12T09:29:09.558Z,99533.84
2023-03-12T09:31:36.683Z,99533.41
2023-03-12T09:34:04.867Z,99546.53
2023-03-12T09:36:32.481Z,99549.84
2023-03-12T09:39:00.281Z,99539.81
2023-03-12T09:41:31.934Z,99526.28
2023-03-12T09:44:05.038Z,99522.75
2023-03-12T09:46:45.657Z,99525.22
2023-03-12T09:49:23.769Z,99524.41
2023-03-12T09:51:56.168Z,99522.13
2023-03-12T09:54:58.809Z,99517.34
2023-03-12T09:57:30.020Z,99532.34
2023-03-12T09:59:57.875Z,99524.09
2023-03-12T10:02:46.213Z,99519.63
2023-03-12T10:05:44.454Z,99509.31
2023-03-12T10:08:36.298Z,99517.25
2023-03-12T10:11:21.041Z,99519.63
2023-03-12T10:14:24.421Z,99508.97
2023-03-12T10:17:29.063Z,99516.22
2023-03-12T10:20:26.445Z,99510.19
2023-03-12T10:23:11.469Z,99522.31
2023-03-12T10:25:46.956Z,99507.72
2023-03-12T10:28:19.772Z,99507.31
2023-03-12T10:30:54.678Z,99497.94
2023-03-12T10:33:28.468Z,99496.53
2023-03-12T10:35:55.837Z,99496.53
2023-03-12T10:38:30.395Z,99503.25
2023-03-12T10:40:57.198Z,99494.09
2023-03-12T10:43:24.341Z,99509.09
2023-03-12T10:46:11.487Z,99507.44
2023-03-12T10:48:38.545Z,99507.88
2023-03-12T10:51:09.697Z,99503.28
2023-03-12T10:53:48.003Z,99507.44
2023-03-12T10:56:19.265Z,99500.56
2023-03-12T10:58:52.406Z,99500.78
2023-03-12T11:01:22.623Z,99505.41
2023-03-12T11:03:51.548Z,99498.75
2023-03-12T11:06:29.038Z,99492.47
2023-03-12T11:09:16.351Z,99488.75
2023-03-12T11:11:47.704Z,99477.44
2023-03-12T11:14:23.522Z,99476.81
2023-03-12T11:16:52.181Z,99485.78
2023-03-12T11:19:31.443Z,99467.00
2023-03-12T11:22:16.108Z,99455.53
2023-03-12T11:24:58.938Z,99460.75
2023-03-12T11:27:57.229Z,99475.41
2023-03-12T11:30:32.750Z,99465.13
2023-03-12T11:33:02.289Z,99473.66
2023-03-12T11:36:15.539Z,99483.06
2023-03-12T11:39:00.994Z,99478.69
2023-03-12T11:41:27.644Z,99464.50
2023-03-12T11:44:05.114Z,99466.16
2023-03-12T11:46:55.768Z,99469.50
2023-03-12T11:49:40.636Z,99465.09
2023-03-12T11:52:31.447Z,99456.09
2023-03-12T11:55:21.122Z,99452.91
2023-03-12T11:58:06.119Z,99459.38
2023-03-12T12:00:49.588Z,99465.22
2023-03-12T12:03:35.595Z,99457.69
2023-03-12T12:06:48.144Z,99454.09
2023-03-12T12:09:43.882Z,99472.75
2023-03-12T12:12:17.165Z,99459.78
2023-03-12T12:15:26.351Z,99456.59
2023-03-12T12:17:57.880Z,99439.88
2023-03-12T12:20:49.080Z,99437.56
2023-03-12T12:23:17.609Z,99424.53
2023-03-12T12:26:13.289Z,99418.41
2023-03-12T12:29:17.189Z,99414.38
2023-03-12T12:32:04.510Z,99426.22
2023-03-12T12:34:52.218Z,99430.34
2023-03-12T12:37:41.050Z,99431.78
2023-03-12T12:40:27.823Z,99420.28
2023-03-12T12:43:29.189Z,99416.56
2023-03-12T12:46:02.778Z,99411.56
2023-03-12T12:48:40.639Z,99406.75
2023-03-12T12:51:10.763Z,99407.59
2023-03-12T12:54:03.226Z,99407.97
2023-03-12T12:56:53.575Z,99408.19
2023-03-12T12:59:34.425Z,99400.22
2023-03-12T13:02:03.953Z,99399.38
2023-03-12T13:04:38.534Z,99398.94
2023-03-12T13:07:14.429Z,99396.22
2023-03-12T13:09:48.055Z,99392.63
2023-03-12T13:12:57.239Z,99382.81
2023-03-12T13:15:29.739Z,99382.59
2023-03-12T13:17:56.524Z,99377.09
2023-03-12T13:20:33.138Z,99369.53
2023-03-12T13:23:32.028Z,99367.53
2023-03-12T13:26:08.493Z,99368.34
2023-03-12T13:29:13.096Z,99368.59
2023-03-12T13:31:42.630Z,99365.91
2023-03-12T13:34:18.591Z,99351.69
2023-03-12T13:36:52.200Z,99359.03
2023-03-12T13:39:34.228Z,99346.66
2023-03-12T13:42:22.650Z,99345.69
2023-03-12T13:44:51.081Z,99333.34
2023-03-12T13:47:36.654Z,99339.22
2023-03-12T13:50:14.551Z,99350.28
2023-03-12T13:52:48.557Z,99341.91
2023-03-12T13:55:34.325Z,99340.50
2023-03-12T13:58:23.595Z,99331.34
2023-03-12T14:00:55.591Z,99327.19
2023-03-12T14:03:29.819Z,99320.53
2023-03-12T14:06:05.844Z,99311.72
2023-03-12T14:08:47.431Z,99321.78
2023-03-12T14:11:38.431Z,99312.00
2023-03-12T14:14:26.565Z,99303.66
2023-03-12T14:16:58.414Z,99309.09
2023-03-12T14:19:31.795Z,99308.06
2023-03-12T14:22:04.811Z,99295.56
2023-03-12T14:24:36.532Z,99299.56
2023-03-12T14:27:07.407Z,99291.84
2023-03-12T14:29:43.357Z,99299.78
2023-03-12T14:32:20.289Z,99294.34
2023-03-12T14:34:54.553Z,99302.31
2023-03-12T14:37:40.829Z,99293.53
2023-03-12T14:40:25.012Z,99296.72
2023-03-12T14:42:52.092Z,99301.13
2023-03-12T14:45:23.686Z,99299.84
2023-03-12T14:47:57.777Z,99294.84
2023-03-12T14:50:31.100Z,99299.44
2023-03-12T14:53:25.350Z,99298.22
2023-03-12T14:56:13.166Z,99293.19
2023-03-12T14:58:49.463Z,99290.91
2023-03-12T15:01:30.345Z,99297.38
2023-03-12T15:04:03.836Z,99288.19
2023-03-12T15:06:38.771Z,99271.66
2023-03-12T15:09:07.881Z,99255.81
2023-03-12T15:11:37.426Z,99261.63
2023-03-12T15:14:14.940Z,99264.59
2023-03-12T15:16:44.332Z,99258.97
2023-03-12T15:19:20.978Z,99248.72
2023-03-12T15:21:48.167Z,99253.75
2023-03-12T15:24:15.341Z,99233.72
2023-03-12T15:26:43.972Z,99242.31
2023-03-12T15:29:29.102Z,99235.03
2023-03-12T15:31:58.707Z,99231.09
2023-03-12T15:34:38.172Z,99222.34
2023-03-12T15:37:20.353Z,99212.50
2023-03-12T15:39:53.045Z,99210.41
2023-03-12T15:42:24.990Z,99204.41
2023-03-12T15:44:59.098Z,99201.25
2023-03-12T15:47:30.009Z,99189.78
2023-03-12T15:50:02.340Z,99180.19
2023-03-12T15:52:33.364Z,99188.13
2023-03-12T15:55:12.292Z,99176.03
2023-03-12T15:57:52.082Z,99173.09
2023-03-12T16:00:43.304Z,99151.38
2023-03-12T16:03:19.712Z,99159.72
2023-03-12T16:05:49.314Z,99143.63
2023-03-12T16:08:21.784Z,99138.66
2023-03-12T16:10:50.708Z,99141.13
2023-03-12T16:13:21.302Z,99123.41
2023-03-12T16:15:49.086Z,99120.06
2023-03-12T16:18:19.549Z,99102.94
2023-03-12T16:20:47.206Z,99096.75
2023-03-12T16:23:15.405Z,99098.81
2023-03-12T16:25:52.361Z,99082.16
2023-03-12T16:28:21.265Z,99082.53
2023-03-12T16:30:48.974Z,99074.25
2023-03-12T16:33:21.007Z,99076.53
2023-03-12T16:35:48.477Z,99065.06
2023-03-12T16:38:15.575Z,99070.94
2023-03-12T16:40:51.128Z,99057.16
2023-03-12T16:43:28.216Z,99046.72
2023-03-12T16:45:56.887Z,99041.47
2023-03-12T16:48:25.005Z,99043.16
2023-03-12T16:50:55.892Z,99029.41
2023-03-12T16:53:23.856Z,99025.88
2023-03-12T16:55:58.748Z,99022.91
2023-03-12T16:58:27.155Z,99021.88
2023-03-12T17:00:55.904Z,99017.34
2023-03-12T17:03:22.643Z,99018.38
2023-03-12T17:05:49.625Z,99016.28
2023-03-12T17:08:16.395Z,99026.31
2023-03-12T17:10:43.664Z,99011.72
2023-03-12T17:13:28.896Z,99018.81
2023-03-12T17:15:57.073Z,99013.41
2023-03-12T17:18:24.021Z,99005.69
2023-03-12T17:20:52.080Z,98990.44
2023-03-12T17:23:19.917Z,98994.84
2023-03-12T17:25:46.941Z,98979.59
2023-03-12T17:28:15.601Z,98967.09
2023-03-12T17:30:43.483Z,98962.72
2023-03-12T17:33:17.872Z,98950.22
2023-03-12T17:35:45.928Z,98947.50
2023-03-12T17:38:13.524Z,98950.25
2023-03-12T17:40:44.474Z,98935.91
2023-03-12T17:43:12.525Z,98939.00
2023-03-12T17:45:40.005Z,98930.72
2023-03-12T17:48:07.232Z,98925.91
2023-03-12T17:50:34.706Z,98930.06
2023-03-12T17:53:01.526Z,98923.84
2023-03-12T17:55:28.372Z,98928.25
2023-03-12T17:57:55.417Z,98927.81
2023-03-12T18:00:23.223Z,98920.72
2023-03-12T18:02:50.925Z,98913.25
2023-03-12T18:05:17.903Z,98912.84
2023-03-12T18:07:48.438Z,98899.31
2023-03-12T18:10:15.790Z,98895.97
2023-03-12T18:12:42.925Z,98893.28
2023-03-12T18:15:13.343Z,98882.25
2023-03-12T18:17:41.716Z,98889.16
2023-03-12T18:20:10.046Z,98880.41
2023-03-12T18:22:39.213Z,98873.09
2023-03-12T18:25:07.923Z,98872.16
2023-03-12T18:27:35.004Z,98859.00
2023-03-12T18:30:01.847Z,98863.78
2023-03-12T18:32:28.818Z,98849.00
2023-03-12T18:34:56.212Z,98848.44
2023-03-12T18:37:23.142Z,98836.75
2023-03-12T18:39:49.937Z,98827.19
2023-03-12T18:42:16.730Z,98822.78
2023-03-12T18:44:44.120Z,98817.19
2023-03-12T18:47:10.968Z,98805.75
2023-03-12T18:49:37.892Z,98800.31
2023-03-12T18:52:05.016Z,98797.00
2023-03-12T18:54:33.757Z,98797.00
2023-03-12T18:57:01.268Z,98789.34
2023-03-12T18:59:29.894Z,98789.69
2023-03-12T19:01:58.347Z,98782.44
2023-03-12T19:04:26.019Z,98771.63
2023-03-12T19:06:53.035Z,98755.44
2023-03-12T19:09:20.096Z,98748.31
2023-03-12T19:11:48.320Z,98746.00
2023-03-12T19:14:15.663Z,98742.28
2023-03-12T19:16:42.521Z,98734.16
2023-03-12T19:19:09.627Z,98736.25
2023-03-12T19:21:36.400Z,98725.22
2023-03-12T19:24:03.246Z,98721.03
2023-03-12T19:26:30.157Z,98724.19
2023-03-12T19:28:56.916Z,98715.00
2023-03-12T19:31:24.017Z,98700.88
2023-03-12T19:33:51.661Z,98701.06
2023-03-12T19:36:18.481Z,98695.03
2023-03-12T19:38:45.284Z,98675.84
2023-03-12T19:41:12.175Z,98674.00
2023-03-12T19:43:40.184Z,98670.06
2023-03-12T19:46:07.236Z,98655.06
2023-03-12T19:48:34.612Z,98643.81
2023-03-12T19:51:06.851Z,98645.09
2023-03-12T19:53:33.649Z,98642.78
2023-03-12T19:56:00.637Z,98643.41
2023-03-12T19:58:28.921Z,98638.19
2023-03-12T20:00:59.666Z,98628.03
2023-03-12T20:03:28.231Z,98612.59
2023-03-12T20:05:55.138Z,98595.88
2023-03-12T20:08:22.708Z,98579.63
2023-03-12T20:10:49.962Z,98566.69
2023-03-12T20:13:17.920Z,98550.25
2023-03-12T20:15:47.023Z,98542.13
2023-03-12T20:18:15.693Z,98537.16
2023-03-12T20:20:43.117Z,98523.38
2023-03-12T20:23:09.973Z,98509.69
2023-03-12T20:25:43.818Z,98504.41
2023-03-12T20:28:11.122Z,98500.50
2023-03-12T20:30:41.440Z,98494.19
2023-03-12T20:33:09.093Z,98485.94
2023-03-12T20:35:36.711Z,98484.22
2023-03-12T20:38:04.516Z,98486.31
2023-03-12T20:40:31.720Z,98476.09
2023-03-12T20:42:58.540Z,98478.63
2023-03-12T20:45:25.646Z,98474.63
2023-03-12T20:47:53.719Z,98463.69
2023-03-12T20:50:21.153Z,98457.78
2023-03-12T20:52:48.417Z,98451.72
2023-03-12T20:55:15.256Z,98435.09
2023-03-12T20:57:42.142Z,98446.75
2023-03-12T21:00:09.873Z,98434.41
2023-03-12T21:02:36.806Z,98429.00
2023-03-12T21:05:03.925Z,98409.41
2023-03-12T21:07:30.692Z,98404.00
2023-03-12T21:09:57.880Z,98399.63
2023-03-12T21:12:24.766Z,98377.94
2023-03-12T21:14:51.530Z,98377.50
2023-03-12T21:17:18.312Z,98373.59
2023-03-12T21:19:46.659Z,98366.94
2023-03-12T21:22:13.570Z,98381.72
2023-03-12T21:24:40.862Z,98388.56
2023-03-12T21:27:11.525Z,98378.56
2023-03-12T21:29:38.461Z,98368.31
2023-03-12T21:32:05.619Z,98371.72
2023-03-12T21:34:32.769Z,98372.09
2023-03-12T21:36:59.604Z,98363.75
2023-03-12T21:39:27.339Z,98374.56
2023-03-12T21:41:54.206Z,98364.19
2023-03-12T21:44:21.028Z,98354.78
2023-03-12T21:46:47.860Z,98361.16
2023-03-12T21:49:18.119Z,98355.38
2023-03-12T21:51:45.707Z,98354.47
2023-03-12T21:54:12.777Z,98339.28
2023-03-12T21:56:41.879Z,98345.97
2023-03-12T21:59:08.722Z,98338.81
2023-03-12T22:01:35.568Z,98325.72
2023-03-12T22:04:03.577Z,98334.00
2023-03-12T22:06:30.457Z,98336.13
2023-03-12T22:08:57.298Z,98310.31
2023-03-12T22:11:24.511Z,98299.72
2023-03-12T22:13:51.265Z,98290.38
2023-03-12T22:16:18.272Z,98282.78
2023-03-12T22:18:46.733Z,98283.13
2023-03-12T22:21:20.333Z,98285.84
2023-03-12T22:23:51.163Z,98273.97
2023-03-12T22:26:22.344Z,98270.03
2023-03-12T22:28:59.707Z,98265.59
2023-03-12T22:31:29.189Z,98258.06
2023-03-12T22:33:57.369Z,98249.25
2023-03-12T22:36:24.480Z,98243.47
2023-03-12T22:38:52.092Z,98240.97
2023-03-12T22:41:27.335Z,98236.28
2023-03-12T22:43:56.765Z,98228.41
2023-03-12T22:46:26.030Z,98229.69
2023-03-12T22:48:56.526Z,98217.78
2023-03-12T22:51:25.119Z,98212.50
2023-03-12T22:53:53.412Z,98213.09
2023-03-12T22:56:20.925Z,98216.88
2023-03-12T22:58:48.402Z,98213.31
2023-03-12T23:01:18.781Z,98202.50
2023-03-12T23:03:46.807Z,98200.94
2023-03-12T23:06:26.365Z,98184.97
2023-03-12T23:08:55.205Z,98174.13
2023-03-12T23:11:25.476Z,98177.28
2023-03-12T23:13:53.647Z,98174.72
2023-03-12T23:16:24.624Z,98166.81
2023-03-12T23:18:52.360Z,98155.97
2023-03-12T23:21:22.385Z,98150.56
2023-03-12T23:23:50.722Z,98130.28
2023-03-12T23:26:21.994Z,98137.00
2023-03-12T23:28:51.275Z,98128.16
2023-03-12T23:31:18.393Z,98127.34
2023-03-12T23:33:45.296Z,98124.41
2023-03-12T23:36:19.224Z,98118.53
2023-03-12T23:38:48.110Z,98111.44
2023-03-12T23:41:17.269Z,98108.28
2023-03-12T23:43:45.084Z,98107.69
2023-03-12T23:46:13.616Z,98102.84
2023-03-12T23:48:41.408Z,98089.31
2023-03-12T23:51:23.397Z,98099.28
2023-03-12T23:53:54.956Z,98099.66
2023-03-12T23:56:27.108Z,98082.81
2023-03-12T23:58:54.572Z,98082.34
